createdAt,value
2017-08-14T00:00:39.856Z,72.50
2017-08-14T00:03:07.446Z,72.70
2017-08-14T00:05:35.018Z,72.70
2017-08-14T00:08:03.049Z,72.60
2017-08-14T00:10:30.622Z,72.70
2017-08-14T00:12:58.184Z,72.70
2017-08-14T00:15:26.552Z,72.80
2017-08-14T00:17:54.125Z,72.80
2017-08-14T00:20:22.794Z,73.10
2017-08-14T00:22:50.357Z,73.10
2017-08-14T00:25:17.929Z,73.20
2017-08-14T00:27:46.326Z,73.20
2017-08-14T00:30:13.881Z,73.10
2017-08-14T00:32:41.898Z,73.10
2017-08-14T00:35:09.467Z,72.60
2017-08-14T00:37:37.019Z,73.00
2017-08-14T00:40:04.622Z,72.70
2017-08-14T00:42:32.187Z,73.00
2017-08-14T00:45:00.835Z,73.10
2017-08-14T00:47:28.397Z,72.90
2017-08-14T00:49:55.969Z,73.30
2017-08-14T00:52:23.581Z,74.10
2017-08-14T00:54:51.139Z,73.10
2017-08-14T00:57:18.996Z,73.10
2017-08-14T00:59:46.559Z,73.30
2017-08-14T01:02:14.114Z,73.20
2017-08-14T01:04:41.698Z,73.20
2017-08-14T01:07:09.428Z,73.20
2017-08-14T01:09:37.509Z,73.40
2017-08-14T01:12:05.057Z,73.30
2017-08-14T01:14:32.620Z,73.10
2017-08-14T01:17:00.218Z,73.00
2017-08-14T01:19:28.065Z,73.20
2017-08-14T01:21:55.977Z,73.10
2017-08-14T01:24:23.538Z,73.20
2017-08-14T01:26:51.095Z,73.40
2017-08-14T01:29:18.694Z,73.30
2017-08-14T01:31:46.251Z,73.20
2017-08-14T01:34:14.122Z,73.70
2017-08-14T01:36:41.674Z,73.20
2017-08-14T01:39:09.225Z,73.60
2017-08-14T01:41:37.586Z,73.60
2017-08-14T01:44:05.152Z,73.50
2017-08-14T01:46:33.812Z,73.50
2017-08-14T01:49:01.423Z,73.50
2017-08-14T01:51:28.980Z,73.50
2017-08-14T01:53:56.573Z,73.50
2017-08-14T01:56:24.125Z,73.50
2017-08-14T01:58:52.139Z,73.40
2017-08-14T02:01:19.692Z,73.40
2017-08-14T02:03:47.260Z,73.50
2017-08-14T02:06:15.634Z,73.80
2017-08-14T02:08:43.819Z,73.40
2017-08-14T02:11:12.462Z,73.90
2017-08-14T02:13:40.013Z,73.90
2017-08-14T02:16:07.563Z,74.00
2017-08-14T02:18:35.242Z,74.30
2017-08-14T02:21:02.813Z,74.10
2017-08-14T02:23:30.808Z,74.30
2017-08-14T02:25:59.134Z,73.20
2017-08-14T02:28:26.713Z,73.50
2017-08-14T02:30:54.299Z,73.40
2017-08-14T02:33:21.868Z,73.40
2017-08-14T02:35:50.545Z,73.30
2017-08-14T02:38:18.103Z,73.30
2017-08-14T02:40:45.701Z,73.70
2017-08-14T02:43:13.293Z,74.00
2017-08-14T02:45:40.930Z,74.00
2017-08-14T02:48:09.046Z,73.90
2017-08-14T02:50:36.602Z,73.50
2017-08-14T02:53:04.156Z,73.30
2017-08-14T02:55:31.774Z,73.90
2017-08-14T02:57:59.330Z,73.40
2017-08-14T03:00:27.179Z,73.70
2017-08-14T03:02:55.490Z,73.50
2017-08-14T03:05:23.043Z,74.10
2017-08-14T03:07:50.652Z,74.00
2017-08-14T03:10:18.425Z,73.90
2017-08-14T03:12:46.704Z,74.00
2017-08-14T03:15:15.037Z,73.40
2017-08-14T03:17:42.603Z,73.40
2017-08-14T03:20:10.189Z,73.40
2017-08-14T03:22:37.961Z,73.80
2017-08-14T03:25:06.065Z,73.70
2017-08-14T03:27:33.610Z,73.70
2017-08-14T03:30:01.211Z,73.20
2017-08-14T03:32:28.799Z,73.70
2017-08-14T03:34:56.340Z,73.80
2017-08-14T03:37:24.262Z,73.40
2017-08-14T03:39:51.832Z,73.20
2017-08-14T03:42:19.371Z,73.20
2017-08-14T03:44:46.982Z,73.50
2017-08-14T03:47:14.549Z,73.70
2017-08-14T03:49:42.600Z,73.90
2017-08-14T03:52:10.191Z,73.40
2017-08-14T03:54:37.767Z,73.70
2017-08-14T03:57:05.364Z,73.70
2017-08-14T03:59:32.924Z,73.70
2017-08-14T04:02:00.948Z,73.70
2017-08-14T04:04:28.536Z,74.20
2017-08-14T04:06:56.094Z,74.00
2017-08-14T04:09:24.438Z,74.60
2017-08-14T04:11:52.006Z,74.50
2017-08-14T04:14:20.064Z,74.30
2017-08-14T04:16:47.678Z,73.90
2017-08-14T04:19:15.241Z,74.20
2017-08-14T04:21:42.837Z,73.80
2017-08-14T04:24:10.504Z,73.50
2017-08-14T04:26:38.391Z,73.20
2017-08-14T04:29:05.972Z,73.30
2017-08-14T04:31:33.564Z,73.40
2017-08-14T04:34:01.177Z,73.50
2017-08-14T04:36:29.509Z,74.10
2017-08-14T04:38:57.523Z,73.50
2017-08-14T04:41:25.079Z,73.00
2017-08-14T04:43:52.634Z,72.90
2017-08-14T04:46:20.257Z,72.60
2017-08-14T04:48:47.834Z,72.50
2017-08-14T04:51:15.832Z,72.50
2017-08-14T04:53:44.519Z,72.30
2017-08-14T04:56:12.173Z,72.30
2017-08-14T04:58:40.653Z,72.00
2017-08-14T05:01:08.220Z,71.90
2017-08-14T05:06:09.847Z,71.80
2017-08-14T05:08:37.925Z,71.60
2017-08-14T05:11:05.482Z,71.50
2017-08-14T05:13:33.037Z,71.20
2017-08-14T05:16:01.836Z,71.00
2017-08-14T05:18:29.395Z,70.80
2017-08-14T05:20:57.393Z,70.40
2017-08-14T05:23:24.962Z,70.40
2017-08-14T05:25:52.520Z,70.40
2017-08-14T05:28:20.148Z,70.50
2017-08-14T05:30:47.698Z,70.50
2017-08-14T05:33:15.701Z,70.50
2017-08-14T05:35:43.255Z,70.60
2017-08-14T05:38:10.822Z,70.60
2017-08-14T05:40:38.560Z,70.60
2017-08-14T05:43:06.198Z,70.60
2017-08-14T05:45:34.042Z,70.20
2017-08-14T05:48:02.389Z,70.10
2017-08-14T05:50:29.947Z,70.10
2017-08-14T05:52:57.776Z,70.00
2017-08-14T05:55:25.339Z,70.00
2017-08-14T05:57:53.328Z,69.90
2017-08-14T06:00:20.891Z,69.90
2017-08-14T06:02:48.475Z,70.00
2017-08-14T06:05:16.831Z,69.40
2017-08-14T06:07:44.418Z,69.70
2017-08-14T06:10:13.080Z,69.80
2017-08-14T06:12:40.679Z,69.80
2017-08-14T06:15:08.235Z,69.90
2017-08-14T06:17:36.603Z,69.80
2017-08-14T06:20:04.173Z,69.70
2017-08-14T06:22:32.061Z,69.90
2017-08-14T06:24:59.645Z,69.80
2017-08-14T06:27:27.189Z,69.70
2017-08-14T06:29:54.943Z,69.40
2017-08-14T06:32:22.514Z,69.60
2017-08-14T06:34:51.428Z,69.40
2017-08-14T06:37:18.979Z,69.40
2017-08-14T06:39:46.549Z,69.30
2017-08-14T06:42:14.144Z,69.20
2017-08-14T06:44:42.495Z,69.20
2017-08-14T06:47:10.508Z,69.10
2017-08-14T06:49:38.092Z,69.20
2017-08-14T06:52:05.658Z,69.00
2017-08-14T06:54:33.233Z,69.00
2017-08-14T06:57:01.592Z,69.00
2017-08-14T06:59:29.964Z,68.90
2017-08-14T07:01:57.536Z,69.00
2017-08-14T07:04:25.103Z,68.80
2017-08-14T07:06:52.693Z,68.80
2017-08-14T07:09:20.254Z,68.70
2017-08-14T07:11:48.942Z,68.50
2017-08-14T07:14:16.529Z,68.30
2017-08-14T07:16:44.099Z,67.70
2017-08-14T07:19:12.080Z,67.90
2017-08-14T07:21:39.773Z,68.00
2017-08-14T07:24:07.650Z,68.00
2017-08-14T07:26:35.214Z,68.10
2017-08-14T07:29:02.974Z,68.20
2017-08-14T07:31:30.565Z,68.20
2017-08-14T07:33:58.254Z,68.30
2017-08-14T07:36:26.145Z,67.80
2017-08-14T07:38:53.717Z,67.60
2017-08-14T07:41:21.282Z,67.30
2017-08-14T07:43:48.868Z,67.10
2017-08-14T07:46:16.487Z,66.90
2017-08-14T07:48:44.474Z,66.70
2017-08-14T07:51:12.502Z,66.40
2017-08-14T07:53:40.148Z,66.20
2017-08-14T07:56:08.042Z,66.10
2017-08-14T07:58:35.595Z,66.20
2017-08-14T08:01:03.197Z,66.10
2017-08-14T08:03:31.560Z,65.40
2017-08-14T08:05:59.120Z,65.40
2017-08-14T08:08:26.688Z,65.10
2017-08-14T08:10:54.662Z,64.70
2017-08-14T08:13:22.353Z,64.70
2017-08-14T08:15:49.898Z,64.70
2017-08-14T08:18:17.471Z,64.40
2017-08-14T08:20:45.035Z,64.10
2017-08-14T08:23:13.169Z,63.80
2017-08-14T08:25:40.725Z,63.70
2017-08-14T08:28:08.287Z,63.40
2017-08-14T08:30:35.893Z,63.30
2017-08-14T08:33:03.482Z,63.40
2017-08-14T08:35:31.072Z,63.40
2017-08-14T08:37:58.635Z,63.10
2017-08-14T08:40:26.714Z,63.20
2017-08-14T08:42:55.034Z,63.30
2017-08-14T08:45:22.592Z,62.90
2017-08-14T08:47:50.293Z,62.50
2017-08-14T08:50:17.862Z,62.50
2017-08-14T08:52:45.725Z,62.30
2017-08-14T08:55:13.285Z,62.20
2017-08-14T08:57:40.946Z,62.00
2017-08-14T09:00:08.525Z,61.80
2017-08-14T09:02:36.088Z,61.60
2017-08-14T09:05:04.775Z,61.20
2017-08-14T09:07:33.139Z,61.20
2017-08-14T09:10:00.702Z,61.20
2017-08-14T09:12:29.077Z,61.30
2017-08-14T09:14:56.642Z,61.30
2017-08-14T09:17:25.306Z,61.40
2017-08-14T09:19:52.853Z,61.40
2017-08-14T09:22:20.400Z,60.80
2017-08-14T09:24:48.110Z,60.50
2017-08-14T09:27:16.442Z,60.10
2017-08-14T09:29:44.444Z,59.60
2017-08-14T09:32:12.000Z,59.00
2017-08-14T09:34:40.213Z,58.00
2017-08-14T09:37:07.983Z,57.70
2017-08-14T09:39:35.548Z,58.20
2017-08-14T09:42:03.410Z,58.30
2017-08-14T09:44:30.965Z,58.30
2017-08-14T09:46:58.531Z,58.40
2017-08-14T09:49:26.129Z,58.20
2017-08-14T09:51:53.695Z,58.10
2017-08-14T09:54:21.660Z,57.80
2017-08-14T09:56:49.212Z,57.40
2017-08-14T09:59:16.775Z,57.70
2017-08-14T10:01:44.379Z,57.70
2017-08-14T10:04:11.943Z,58.20
2017-08-14T10:06:40.549Z,58.00
2017-08-14T10:09:08.296Z,58.00
2017-08-14T10:11:35.866Z,58.20
2017-08-14T10:14:03.478Z,58.40
2017-08-14T10:16:31.038Z,58.50
2017-08-14T10:18:58.629Z,58.40
2017-08-14T10:21:26.207Z,58.10
2017-08-14T10:23:54.071Z,58.00
2017-08-14T10:26:21.711Z,58.20
2017-08-14T10:28:50.057Z,58.60
2017-08-14T10:31:17.662Z,58.60
2017-08-14T10:33:45.228Z,58.80
2017-08-14T10:36:13.402Z,57.90
2017-08-14T10:38:40.966Z,57.50
2017-08-14T10:41:08.571Z,57.60
2017-08-14T10:43:37.036Z,57.60
2017-08-14T10:46:04.608Z,57.60
2017-08-14T10:48:32.186Z,57.60
2017-08-14T10:50:59.785Z,57.60
2017-08-14T10:53:27.331Z,57.50
2017-08-14T10:55:55.265Z,57.30
2017-08-14T10:58:22.797Z,56.70
2017-08-14T11:00:50.347Z,55.80
2017-08-14T11:03:17.951Z,56.50
2017-08-14T11:05:45.526Z,56.10
2017-08-14T11:08:14.188Z,56.60
2017-08-14T11:10:41.759Z,56.60
2017-08-14T11:13:09.294Z,56.90
2017-08-14T11:15:36.899Z,56.50
2017-08-14T11:18:04.447Z,56.80
2017-08-14T11:20:33.117Z,56.20
2017-08-14T11:23:00.695Z,56.20
2017-08-14T11:25:28.257Z,56.70
2017-08-14T11:27:56.610Z,55.80
2017-08-14T11:30:24.312Z,55.80
2017-08-14T11:32:52.248Z,55.90
2017-08-14T11:35:19.827Z,55.50
2017-08-14T11:37:47.438Z,56.00
2017-08-14T11:40:15.422Z,55.60
2017-08-14T11:42:42.997Z,55.60
2017-08-14T11:45:10.963Z,55.20
2017-08-14T11:47:38.521Z,55.60
2017-08-14T11:50:06.096Z,55.60
2017-08-14T11:52:34.460Z,55.60
2017-08-14T11:55:02.262Z,55.60
2017-08-14T11:57:30.283Z,55.60
2017-08-14T11:59:57.832Z,55.40
2017-08-14T12:02:25.405Z,55.40
2017-08-14T12:04:53.011Z,55.30
2017-08-14T12:07:20.566Z,56.10
2017-08-14T12:09:48.164Z,56.20
2017-08-14T12:12:15.727Z,55.70
2017-08-14T12:14:43.586Z,55.70
2017-08-14T12:17:11.342Z,55.80
2017-08-14T12:19:38.913Z,55.50
2017-08-14T12:22:06.519Z,55.80
2017-08-14T12:24:34.849Z,55.40
2017-08-14T12:27:02.828Z,55.40
2017-08-14T12:29:30.405Z,55.20
2017-08-14T12:31:57.984Z,56.00
2017-08-14T12:34:26.354Z,57.80
2017-08-14T12:36:53.922Z,57.70
2017-08-14T12:39:22.577Z,57.20
2017-08-14T12:41:50.164Z,56.20
2017-08-14T12:44:17.750Z,56.10
2017-08-14T12:46:45.363Z,56.30
2017-08-14T12:49:12.947Z,56.50
2017-08-14T12:51:40.880Z,56.10
2017-08-14T12:54:08.446Z,55.50
2017-08-14T12:56:36.014Z,56.00
2017-08-14T12:59:03.625Z,55.60
2017-08-14T13:01:31.189Z,55.80
2017-08-14T13:03:59.217Z,55.10
2017-08-14T13:06:26.953Z,55.40
2017-08-14T13:08:54.512Z,54.30
2017-08-14T13:11:22.271Z,53.60
2017-08-14T13:13:49.846Z,53.60
2017-08-14T13:16:17.736Z,52.70
2017-08-14T13:18:45.288Z,51.70
2017-08-14T13:21:12.870Z,51.40
2017-08-14T13:23:41.335Z,51.30
2017-08-14T13:26:09.851Z,49.70
2017-08-14T13:28:37.891Z,49.30
2017-08-14T13:31:06.459Z,45.50
2017-08-14T13:33:34.800Z,44.20
2017-08-14T13:36:02.379Z,44.30
2017-08-14T13:38:29.944Z,44.60
2017-08-14T13:40:57.830Z,41.70
2017-08-14T13:43:25.389Z,43.30
2017-08-14T13:45:52.979Z,40.60
2017-08-14T13:48:20.589Z,41.30
2017-08-14T13:50:48.141Z,40.00
2017-08-14T13:53:16.662Z,38.10
2017-08-14T13:55:44.214Z,37.40
2017-08-14T13:58:11.782Z,37.20
2017-08-14T14:00:39.642Z,34.70
2017-08-14T14:03:07.193Z,36.00
2017-08-14T14:05:35.050Z,36.90
2017-08-14T14:08:02.682Z,36.40
2017-08-14T14:10:30.284Z,35.00
2017-08-14T14:12:57.888Z,34.90
2017-08-14T14:15:25.460Z,34.70
2017-08-14T14:17:53.389Z,33.90
2017-08-14T14:20:21.709Z,34.50
2017-08-14T14:22:49.265Z,34.50
2017-08-14T14:25:16.971Z,35.00
2017-08-14T14:27:44.540Z,36.10
2017-08-14T14:30:12.864Z,37.40
2017-08-14T14:32:40.435Z,38.70
2017-08-14T14:35:07.985Z,38.20
2017-08-14T14:37:35.593Z,38.00
2017-08-14T14:40:03.159Z,40.50
2017-08-14T14:42:31.820Z,42.60
2017-08-14T14:44:59.568Z,41.40
2017-08-14T14:47:27.148Z,42.20
2017-08-14T14:49:54.755Z,42.50
2017-08-14T14:52:22.478Z,43.50
2017-08-14T14:54:50.075Z,43.40
2017-08-14T14:57:17.630Z,43.70
2017-08-14T14:59:45.678Z,44.50
2017-08-14T15:02:13.995Z,45.00
2017-08-14T15:04:41.543Z,44.70
2017-08-14T15:07:09.148Z,45.20
2017-08-14T15:09:36.706Z,43.60
2017-08-14T15:12:04.588Z,44.80
2017-08-14T15:14:32.150Z,45.20
2017-08-14T15:16:59.717Z,45.80
2017-08-14T15:19:27.304Z,45.50
2017-08-14T15:21:54.867Z,45.80
2017-08-14T15:24:22.915Z,46.20
2017-08-14T15:26:51.263Z,46.20
2017-08-14T15:29:18.824Z,46.20
2017-08-14T15:31:46.473Z,46.40
2017-08-14T15:34:14.027Z,46.00
2017-08-14T15:36:42.007Z,45.60
2017-08-14T15:39:09.566Z,46.60
2017-08-14T15:41:37.198Z,46.40
2017-08-14T15:44:04.796Z,45.40
2017-08-14T15:46:32.349Z,45.90
2017-08-14T15:49:00.346Z,45.80
2017-08-14T15:51:28.040Z,45.80
2017-08-14T15:53:55.602Z,43.80
2017-08-14T15:56:23.202Z,43.10
2017-08-14T15:58:50.771Z,39.60
2017-08-14T16:01:18.869Z,37.90
2017-08-14T16:03:47.194Z,31.90
2017-08-14T16:06:14.742Z,31.90
2017-08-14T16:08:42.337Z,29.50
2017-08-14T16:11:10.231Z,29.50
2017-08-14T16:13:38.200Z,28.70
2017-08-14T16:16:06.546Z,27.90
2017-08-14T16:18:34.112Z,27.90
2017-08-14T16:21:01.831Z,29.20
2017-08-14T16:23:29.406Z,30.90
2017-08-14T16:25:57.306Z,32.30
2017-08-14T16:28:24.940Z,34.10
2017-08-14T16:30:52.504Z,36.30
2017-08-14T16:33:20.108Z,37.40
2017-08-14T16:35:48.434Z,38.00
2017-08-14T16:38:16.289Z,38.00
2017-08-14T16:40:43.848Z,39.70
2017-08-14T16:43:11.439Z,40.80
2017-08-14T16:45:39.102Z,41.50
2017-08-14T16:48:06.643Z,42.10
2017-08-14T16:50:34.537Z,42.90
2017-08-14T16:53:02.097Z,42.80
2017-08-14T16:55:29.657Z,42.90
2017-08-14T16:57:57.494Z,44.10
2017-08-14T17:00:25.034Z,44.20
2017-08-14T17:02:52.637Z,44.70
2017-08-14T17:05:20.199Z,44.90
2017-08-14T17:07:48.175Z,45.10
2017-08-14T17:10:15.780Z,45.50
2017-08-14T17:12:43.386Z,45.30
2017-08-14T17:15:11.466Z,45.60
2017-08-14T17:17:39.032Z,46.50
2017-08-14T17:20:07.684Z,46.40
2017-08-14T17:22:35.329Z,47.00
2017-08-14T17:25:02.901Z,47.20
2017-08-14T17:27:30.519Z,47.70
2017-08-14T17:29:58.095Z,48.60
2017-08-14T17:32:25.916Z,48.60
2017-08-14T17:34:53.495Z,48.40
2017-08-14T17:37:21.674Z,48.50
2017-08-14T17:39:50.012Z,48.80
2017-08-14T17:42:18.244Z,48.20
2017-08-14T17:44:45.935Z,48.20
2017-08-14T17:47:13.506Z,48.10
2017-08-14T17:49:41.765Z,48.20
2017-08-14T17:52:09.325Z,49.30
2017-08-14T17:54:36.888Z,49.60
2017-08-14T17:57:04.498Z,50.20
2017-08-14T17:59:32.082Z,50.40
2017-08-14T18:02:01.033Z,51.60
2017-08-14T18:04:28.638Z,51.60
2017-08-14T18:06:56.225Z,51.60
2017-08-14T18:09:23.821Z,51.80
2017-08-14T18:11:51.629Z,52.10
2017-08-14T18:14:19.217Z,52.10
2017-08-14T18:16:46.773Z,52.10
2017-08-14T18:19:14.793Z,52.30
2017-08-14T18:21:43.138Z,53.30
2017-08-14T18:24:10.733Z,53.30
2017-08-14T18:26:39.109Z,54.00
2017-08-14T18:29:06.646Z,54.00
2017-08-14T18:31:34.241Z,53.90
2017-08-14T18:34:01.814Z,53.90
2017-08-14T18:36:29.442Z,53.80
2017-08-14T18:38:57.035Z,54.00
2017-08-14T18:41:25.193Z,54.20
2017-08-14T18:43:53.518Z,54.80
2017-08-14T18:46:21.061Z,54.60
2017-08-14T18:48:48.669Z,54.80
2017-08-14T18:51:16.241Z,55.40
2017-08-14T18:53:44.908Z,56.00
2017-08-14T18:56:12.456Z,55.80
2017-08-14T18:58:40.035Z,56.30
2017-08-14T19:01:07.633Z,56.50
2017-08-14T19:03:35.170Z,57.20
2017-08-14T19:06:03.822Z,58.50
2017-08-14T19:08:33.302Z,58.30
2017-08-14T19:10:59.228Z,59.80
2017-08-14T19:13:26.856Z,59.80
2017-08-14T19:15:55.187Z,59.70
2017-08-14T19:18:23.148Z,59.60
2017-08-14T19:20:50.742Z,59.50
2017-08-14T19:23:18.303Z,59.60
2017-08-14T19:25:46.690Z,60.20
2017-08-14T19:28:14.802Z,59.40
2017-08-14T19:30:42.441Z,60.40
2017-08-14T19:33:10.008Z,60.10
2017-08-14T19:35:38.032Z,60.20
2017-08-14T19:38:05.601Z,60.40
2017-08-14T19:40:33.402Z,60.60
2017-08-14T19:43:01.037Z,60.70
2017-08-14T19:45:29.421Z,60.80
2017-08-14T19:47:57.376Z,60.70
2017-08-14T19:50:24.940Z,61.00
2017-08-14T19:52:52.513Z,61.40
2017-08-14T19:55:20.886Z,61.70
2017-08-14T19:57:48.462Z,61.50
2017-08-14T20:00:16.501Z,61.60
2017-08-14T20:02:44.069Z,61.70
2017-08-14T20:05:11.648Z,61.50
2017-08-14T20:07:39.230Z,61.60
2017-08-14T20:10:06.948Z,61.50
2017-08-14T20:12:35.603Z,61.20
2017-08-14T20:15:03.169Z,61.60
2017-08-14T20:17:30.726Z,61.70
2017-08-14T20:19:58.331Z,61.60
2017-08-14T20:22:25.902Z,62.10
2017-08-14T20:24:53.501Z,61.80
2017-08-14T20:27:21.051Z,62.10
2017-08-14T20:29:48.661Z,62.10
2017-08-14T20:32:16.981Z,62.60
2017-08-14T20:34:44.845Z,62.40
2017-08-14T20:37:12.393Z,62.50
2017-08-14T20:39:40.136Z,62.50
2017-08-14T20:42:08.502Z,63.10
2017-08-14T20:44:36.069Z,63.00
2017-08-14T20:47:04.734Z,63.30
2017-08-14T20:49:32.294Z,63.20
2017-08-14T20:51:59.852Z,63.30
2017-08-14T20:54:27.439Z,63.30
2017-08-14T20:56:55.926Z,63.60
2017-08-14T20:59:23.963Z,63.50
2017-08-14T21:01:51.537Z,63.80
2017-08-14T21:04:19.097Z,63.90
2017-08-14T21:06:47.481Z,63.80
2017-08-14T21:09:15.057Z,63.60
2017-08-14T21:11:42.974Z,64.10
2017-08-14T21:14:10.536Z,63.90
2017-08-14T21:16:38.095Z,64.20
2017-08-14T21:19:05.921Z,65.20
2017-08-14T21:21:33.467Z,64.70
2017-08-14T21:24:01.425Z,64.90
2017-08-14T21:26:29.842Z,65.00
2017-08-14T21:28:57.414Z,65.00
2017-08-14T21:31:25.005Z,65.00
2017-08-14T21:33:52.551Z,64.80
2017-08-14T21:36:20.553Z,65.40
2017-08-14T21:38:48.888Z,65.50
2017-08-14T21:41:16.443Z,65.50
2017-08-14T21:43:44.109Z,65.40
2017-08-14T21:46:11.678Z,65.60
2017-08-14T21:48:39.511Z,65.80
2017-08-14T21:51:07.081Z,65.80
2017-08-14T21:53:34.654Z,65.60
2017-08-14T21:56:02.297Z,65.90
2017-08-14T21:58:29.866Z,66.00
2017-08-14T22:00:57.756Z,66.00
2017-08-14T22:03:25.340Z,66.20
2017-08-14T22:05:52.893Z,66.50
2017-08-14T22:08:20.738Z,67.00
2017-08-14T22:10:48.294Z,66.90
2017-08-14T22:13:16.264Z,66.90
2017-08-14T22:15:43.824Z,66.80
2017-08-14T22:18:11.408Z,66.90
2017-08-14T22:20:40.162Z,67.30
2017-08-14T22:23:07.725Z,66.80
2017-08-14T22:25:35.636Z,66.90
2017-08-14T22:28:03.980Z,67.40
2017-08-14T22:30:31.632Z,67.30
2017-08-14T22:32:59.256Z,67.20
2017-08-14T22:35:26.834Z,67.70
2017-08-14T22:37:54.732Z,67.80
2017-08-14T22:40:22.298Z,68.00
2017-08-14T22:42:50.570Z,68.20
2017-08-14T22:45:18.157Z,67.80
2017-08-14T22:47:46.513Z,68.00
2017-08-14T22:50:14.467Z,68.00
2017-08-14T22:52:42.017Z,68.00
2017-08-14T22:55:09.603Z,68.40
2017-08-14T22:57:37.409Z,68.60
2017-08-14T23:02:58.043Z,69.10
2017-08-14T23:05:25.609Z,68.90
2017-08-14T23:07:53.172Z,69.10
2017-08-14T23:10:20.780Z,69.00
2017-08-14T23:12:49.103Z,69.40
2017-08-14T23:15:17.101Z,69.40
2017-08-14T23:17:44.656Z,69.10
2017-08-14T23:20:12.186Z,69.10
2017-08-14T23:22:39.779Z,69.40
2017-08-14T23:25:07.343Z,69.00
2017-08-14T23:27:35.412Z,69.50
2017-08-14T23:30:02.980Z,69.10
2017-08-14T23:32:30.536Z,69.10
2017-08-14T23:34:58.141Z,69.20
2017-08-14T23:37:25.656Z,68.90
2017-08-14T23:39:53.714Z,69.10
2017-08-14T23:42:21.292Z,69.00
2017-08-14T23:44:48.873Z,69.20
2017-08-14T23:47:16.520Z,69.20
2017-08-14T23:49:44.860Z,69.60
2017-08-14T23:52:12.844Z,69.20
2017-08-14T23:54:40.411Z,68.90
2017-08-14T23:57:07.976Z,69.20
2017-08-14T23:59:35.566Z,69.40
